sensor_id;sensor_type;location;lat;lon;timestamp;pressure;altitude;pressure_sealevel;temperature;humidity
68301;BME280;55146;47.468;18.806;2023-03-16T00:01:38;100068.22;;;3.50;58.69
68301;BME280;55146;47.468;18.806;2023-03-16T00:04:03;100064.66;;;3.50;58.79
68301;BME280;55146;47.468;18.806;2023-03-16T00:06:29;100065.84;;;3.54;58.67
68301;BME280;55146;47.468;18.806;2023-03-16T00:08:54;100074.94;;;3.48;59.21
68301;BME280;55146;47.468;18.806;2023-03-16T00:11:25;100078.13;;;3.45;58.85
68301;BME280;55146;47.468;18.806;2023-03-16T00:13:51;100088.09;;;3.33;58.22
68301;BME280;55146;47.468;18.806;2023-03-16T00:16:16;100088.94;;;3.33;58.38
68301;BME280;55146;47.468;18.806;2023-03-16T00:18:42;100084.41;;;3.27;58.92
68301;BME280;55146;47.468;18.806;2023-03-16T00:21:07;100082.97;;;3.24;59.10
68301;BME280;55146;47.468;18.806;2023-03-16T00:23:34;100081.06;;;3.25;59.36
68301;BME280;55146;47.468;18.806;2023-03-16T00:26:02;100080.59;;;3.28;59.67
68301;BME280;55146;47.468;18.806;2023-03-16T00:28:29;100084.84;;;3.24;59.51
68301;BME280;55146;47.468;18.806;2023-03-16T00:31:05;100095.72;;;3.24;59.42
68301;BME280;55146;47.468;18.806;2023-03-16T00:33:31;100098.66;;;3.22;59.56
68301;BME280;55146;47.468;18.806;2023-03-16T00:36:00;100095.66;;;3.12;60.26
68301;BME280;55146;47.468;18.806;2023-03-16T00:38:33;100091.63;;;3.15;60.12
68301;BME280;55146;47.468;18.806;2023-03-16T00:41:00;100096.69;;;3.11;60.75
68301;BME280;55146;47.468;18.806;2023-03-16T00:43:29;100100.31;;;3.05;60.68
68301;BME280;55146;47.468;18.806;2023-03-16T00:45:59;100096.97;;;3.03;60.91
68301;BME280;55146;47.468;18.806;2023-03-16T00:48:32;100098.34;;;2.94;60.77
68301;BME280;55146;47.468;18.806;2023-03-16T00:51:00;100094.87;;;2.87;60.87
68301;BME280;55146;47.468;18.806;2023-03-16T00:53:25;100099.47;;;2.87;61.23
68301;BME280;55146;47.468;18.806;2023-03-16T00:55:50;100098.00;;;2.84;60.71
68301;BME280;55146;47.468;18.806;2023-03-16T00:58:17;100102.91;;;2.75;61.05
68301;BME280;55146;47.468;18.806;2023-03-16T01:00:44;100112.13;;;2.74;61.32
68301;BME280;55146;47.468;18.806;2023-03-16T01:03:10;100101.25;;;2.74;61.31
68301;BME280;55146;47.468;18.806;2023-03-16T01:05:39;100100.88;;;2.71;62.18
68301;BME280;55146;47.468;18.806;2023-03-16T01:08:04;100111.34;;;2.67;61.97
68301;BME280;55146;47.468;18.806;2023-03-16T01:10:33;100107.44;;;2.63;62.47
68301;BME280;55146;47.468;18.806;2023-03-16T01:12:58;100105.03;;;2.49;63.02
68301;BME280;55146;47.468;18.806;2023-03-16T01:15:24;100103.50;;;2.59;63.15
68301;BME280;55146;47.468;18.806;2023-03-16T01:17:49;100107.44;;;2.63;63.03
68301;BME280;55146;47.468;18.806;2023-03-16T01:20:15;100105.66;;;2.51;63.43
68301;BME280;55146;47.468;18.806;2023-03-16T01:22:44;100107.63;;;2.62;63.34
68301;BME280;55146;47.468;18.806;2023-03-16T01:25:10;100102.66;;;2.59;63.49
68301;BME280;55146;47.468;18.806;2023-03-16T01:27:36;100102.72;;;2.52;64.14
68301;BME280;55146;47.468;18.806;2023-03-16T01:30:02;100106.91;;;2.48;63.46
68301;BME280;55146;47.468;18.806;2023-03-16T01:32:29;100101.09;;;2.44;63.70
68301;BME280;55146;47.468;18.806;2023-03-16T01:34:54;100109.62;;;2.48;63.99
68301;BME280;55146;47.468;18.806;2023-03-16T01:37:19;100110.50;;;2.42;63.23
68301;BME280;55146;47.468;18.806;2023-03-16T01:39:47;100111.75;;;2.46;64.20
68301;BME280;55146;47.468;18.806;2023-03-16T01:42:12;100120.72;;;2.47;64.08
68301;BME280;55146;47.468;18.806;2023-03-16T01:44:50;100118.19;;;2.52;63.53
68301;BME280;55146;47.468;18.806;2023-03-16T01:47:16;100111.66;;;2.59;63.58
68301;BME280;55146;47.468;18.806;2023-03-16T01:49:42;100123.56;;;2.58;63.79
68301;BME280;55146;47.468;18.806;2023-03-16T01:52:15;100126.38;;;2.45;63.76
68301;BME280;55146;47.468;18.806;2023-03-16T01:54:44;100128.87;;;2.47;64.05
68301;BME280;55146;47.468;18.806;2023-03-16T01:57:14;100122.00;;;2.44;64.16
68301;BME280;55146;47.468;18.806;2023-03-16T02:00:22;100124.75;;;2.37;64.79
68301;BME280;55146;47.468;18.806;2023-03-16T02:02:57;100130.56;;;2.41;64.49
68301;BME280;55146;47.468;18.806;2023-03-16T02:05:40;100142.44;;;2.47;65.44
68301;BME280;55146;47.468;18.806;2023-03-16T02:08:08;100144.38;;;2.39;65.01
68301;BME280;55146;47.468;18.806;2023-03-16T02:10:36;100142.88;;;2.43;65.06
68301;BME280;55146;47.468;18.806;2023-03-16T02:13:03;100149.50;;;2.48;64.84
68301;BME280;55146;47.468;18.806;2023-03-16T02:15:28;100150.81;;;2.45;64.76
68301;BME280;55146;47.468;18.806;2023-03-16T02:17:54;100146.41;;;2.44;64.72
68301;BME280;55146;47.468;18.806;2023-03-16T02:23:08;100148.94;;;2.46;64.37
68301;BME280;55146;47.468;18.806;2023-03-16T02:26:06;100144.31;;;2.46;64.66
68301;BME280;55146;47.468;18.806;2023-03-16T02:31:09;100154.34;;;2.46;65.07
68301;BME280;55146;47.468;18.806;2023-03-16T02:33:36;100156.56;;;2.55;64.57
68301;BME280;55146;47.468;18.806;2023-03-16T02:36:02;100172.47;;;2.52;64.59
68301;BME280;55146;47.468;18.806;2023-03-16T02:38:28;100175.66;;;2.42;65.29
68301;BME280;55146;47.468;18.806;2023-03-16T02:41:16;100183.09;;;2.53;65.01
68301;BME280;55146;47.468;18.806;2023-03-16T02:43:47;100182.75;;;2.43;64.98
68301;BME280;55146;47.468;18.806;2023-03-16T02:46:16;100189.03;;;2.43;64.79
68301;BME280;55146;47.468;18.806;2023-03-16T02:49:10;100188.44;;;2.35;65.27
68301;BME280;55146;47.468;18.806;2023-03-16T02:51:41;100193.44;;;2.38;65.08
68301;BME280;55146;47.468;18.806;2023-03-16T02:54:06;100194.94;;;2.34;65.06
68301;BME280;55146;47.468;18.806;2023-03-16T02:56:32;100195.53;;;2.36;65.12
68301;BME280;55146;47.468;18.806;2023-03-16T02:58:57;100195.78;;;2.34;65.50
68301;BME280;55146;47.468;18.806;2023-03-16T03:01:23;100204.78;;;2.28;65.47
68301;BME280;55146;47.468;18.806;2023-03-16T03:03:48;100205.59;;;2.29;65.30
68301;BME280;55146;47.468;18.806;2023-03-16T03:06:14;100213.53;;;2.30;64.98
68301;BME280;55146;47.468;18.806;2023-03-16T03:08:39;100222.31;;;2.26;64.95
68301;BME280;55146;47.468;18.806;2023-03-16T03:11:05;100227.75;;;2.26;64.91
68301;BME280;55146;47.468;18.806;2023-03-16T03:13:30;100229.00;;;2.23;64.96
68301;BME280;55146;47.468;18.806;2023-03-16T03:15:56;100236.97;;;2.18;64.91
68301;BME280;55146;47.468;18.806;2023-03-16T03:18:21;100233.44;;;2.11;64.84
68301;BME280;55146;47.468;18.806;2023-03-16T03:20:56;100230.34;;;2.08;65.01
68301;BME280;55146;47.468;18.806;2023-03-16T03:23:21;100237.88;;;2.06;65.13
68301;BME280;55146;47.468;18.806;2023-03-16T03:25:46;100238.53;;;2.01;65.29
68301;BME280;55146;47.468;18.806;2023-03-16T03:28:12;100235.41;;;1.97;65.51
68301;BME280;55146;47.468;18.806;2023-03-16T03:30:37;100239.59;;;1.93;65.59
68301;BME280;55146;47.468;18.806;2023-03-16T03:33:03;100238.97;;;1.91;65.92
68301;BME280;55146;47.468;18.806;2023-03-16T03:35:28;100245.47;;;1.90;66.36
68301;BME280;55146;47.468;18.806;2023-03-16T03:37:53;100255.06;;;1.80;66.74
68301;BME280;55146;47.468;18.806;2023-03-16T03:40:19;100259.06;;;1.71;67.96
68301;BME280;55146;47.468;18.806;2023-03-16T03:42:45;100255.34;;;1.65;68.67
68301;BME280;55146;47.468;18.806;2023-03-16T03:45:11;100267.19;;;1.77;68.32
68301;BME280;55146;47.468;18.806;2023-03-16T03:47:38;100257.19;;;1.78;68.51
68301;BME280;55146;47.468;18.806;2023-03-16T03:50:04;100262.59;;;1.84;68.19
68301;BME280;55146;47.468;18.806;2023-03-16T03:52:29;100265.50;;;1.83;68.05
68301;BME280;55146;47.468;18.806;2023-03-16T03:54:55;100264.66;;;1.82;68.05
68301;BME280;55146;47.468;18.806;2023-03-16T03:57:20;100271.75;;;1.83;67.96
68301;BME280;55146;47.468;18.806;2023-03-16T03:59:45;100269.25;;;1.88;68.08
68301;BME280;55146;47.468;18.806;2023-03-16T04:02:11;100274.47;;;1.90;67.41
68301;BME280;55146;47.468;18.806;2023-03-16T04:04:38;100279.88;;;1.90;67.20
68301;BME280;55146;47.468;18.806;2023-03-16T04:07:04;100280.09;;;1.88;67.23
68301;BME280;55146;47.468;18.806;2023-03-16T04:09:30;100283.44;;;1.84;66.98
68301;BME280;55146;47.468;18.806;2023-03-16T04:11:59;100284.72;;;1.75;67.06
68301;BME280;55146;47.468;18.806;2023-03-16T04:14:25;100279.72;;;1.72;67.09
68301;BME280;55146;47.468;18.806;2023-03-16T04:16:50;100280.59;;;1.59;67.12
68301;BME280;55146;47.468;18.806;2023-03-16T04:19:15;100287.06;;;1.51;67.53
68301;BME280;55146;47.468;18.806;2023-03-16T04:21:41;100284.53;;;1.50;67.73
68301;BME280;55146;47.468;18.806;2023-03-16T04:24:06;100288.72;;;1.52;67.59
68301;BME280;55146;47.468;18.806;2023-03-16T04:26:32;100287.06;;;1.51;67.65
68301;BME280;55146;47.468;18.806;2023-03-16T04:28:58;100299.78;;;1.51;68.07
68301;BME280;55146;47.468;18.806;2023-03-16T04:31:24;100305.63;;;1.48;67.97
68301;BME280;55146;47.468;18.806;2023-03-16T04:33:50;100305.00;;;1.46;68.15
68301;BME280;55146;47.468;18.806;2023-03-16T04:36:19;100312.94;;;1.41;68.38
68301;BME280;55146;47.468;18.806;2023-03-16T04:38:49;100304.78;;;1.41;68.23
68301;BME280;55146;47.468;18.806;2023-03-16T04:41:14;100309.78;;;1.37;68.31
68301;BME280;55146;47.468;18.806;2023-03-16T04:43:40;100307.91;;;1.38;67.92
68301;BME280;55146;47.468;18.806;2023-03-16T04:46:07;100307.50;;;1.41;67.89
68301;BME280;55146;47.468;18.806;2023-03-16T04:48:33;100306.25;;;1.37;68.45
68301;BME280;55146;47.468;18.806;2023-03-16T04:50:59;100322.94;;;1.34;68.53
68301;BME280;55146;47.468;18.806;2023-03-16T04:53:26;100319.19;;;1.35;68.52
68301;BME280;55146;47.468;18.806;2023-03-16T04:58:45;100317.91;;;1.37;68.91
68301;BME280;55146;47.468;18.806;2023-03-16T05:01:10;100323.75;;;1.34;68.92
68301;BME280;55146;47.468;18.806;2023-03-16T05:03:36;100326.88;;;1.31;68.77
68301;BME280;55146;47.468;18.806;2023-03-16T05:06:01;100331.91;;;1.34;68.91
68301;BME280;55146;47.468;18.806;2023-03-16T05:08:26;100333.97;;;1.32;68.98
68301;BME280;55146;47.468;18.806;2023-03-16T05:10:56;100332.72;;;1.35;68.88
68301;BME280;55146;47.468;18.806;2023-03-16T05:13:21;100339.00;;;1.35;68.86
68301;BME280;55146;47.468;18.806;2023-03-16T05:15:46;100332.09;;;1.39;68.94
68301;BME280;55146;47.468;18.806;2023-03-16T05:18:12;100339.81;;;1.36;69.12
68301;BME280;55146;47.468;18.806;2023-03-16T05:20:37;100340.88;;;1.35;69.47
68301;BME280;55146;47.468;18.806;2023-03-16T05:23:02;100346.69;;;1.32;69.48
68301;BME280;55146;47.468;18.806;2023-03-16T05:25:28;100347.53;;;1.32;69.44
68301;BME280;55146;47.468;18.806;2023-03-16T05:27:53;100349.81;;;1.35;69.40
68301;BME280;55146;47.468;18.806;2023-03-16T05:30:19;100345.66;;;1.33;69.46
68301;BME280;55146;47.468;18.806;2023-03-16T05:32:45;100352.75;;;1.34;69.34
68301;BME280;55146;47.468;18.806;2023-03-16T05:35:11;100352.75;;;1.34;69.47
68301;BME280;55146;47.468;18.806;2023-03-16T05:37:41;100348.56;;;1.31;69.61
68301;BME280;55146;47.468;18.806;2023-03-16T05:40:09;100359.19;;;1.33;69.74
68301;BME280;55146;47.468;18.806;2023-03-16T05:42:38;100355.25;;;1.35;69.82
68301;BME280;55146;47.468;18.806;2023-03-16T05:45:03;100364.22;;;1.29;70.18
68301;BME280;55146;47.468;18.806;2023-03-16T05:47:29;100362.75;;;1.33;70.16
68301;BME280;55146;47.468;18.806;2023-03-16T05:49:54;100364.41;;;1.34;70.44
68301;BME280;55146;47.468;18.806;2023-03-16T05:52:20;100367.53;;;1.44;70.26
68301;BME280;55146;47.468;18.806;2023-03-16T05:54:45;100377.75;;;1.49;70.11
68301;BME280;55146;47.468;18.806;2023-03-16T05:57:11;100376.31;;;1.59;69.88
68301;BME280;55146;47.468;18.806;2023-03-16T05:59:36;100386.91;;;1.68;69.48
68301;BME280;55146;47.468;18.806;2023-03-16T06:02:01;100379.59;;;1.75;69.50
68301;BME280;55146;47.468;18.806;2023-03-16T06:04:27;100395.03;;;1.81;69.50
68301;BME280;55146;47.468;18.806;2023-03-16T06:06:52;100397.56;;;1.76;70.52
68301;BME280;55146;47.468;18.806;2023-03-16T06:09:18;100402.13;;;1.88;70.08
68301;BME280;55146;47.468;18.806;2023-03-16T06:11:43;100406.91;;;1.93;69.88
68301;BME280;55146;47.468;18.806;2023-03-16T06:14:08;100407.34;;;2.03;69.86
68301;BME280;55146;47.468;18.806;2023-03-16T06:16:33;100404.19;;;2.06;70.68
68301;BME280;55146;47.468;18.806;2023-03-16T06:18:59;100414.81;;;2.21;71.00
68301;BME280;55146;47.468;18.806;2023-03-16T06:21:25;100406.56;;;2.47;70.51
68301;BME280;55146;47.468;18.806;2023-03-16T06:23:50;100412.81;;;2.54;70.69
68301;BME280;55146;47.468;18.806;2023-03-16T06:26:15;100417.38;;;2.67;70.51
68301;BME280;55146;47.468;18.806;2023-03-16T06:28:41;100418.75;;;2.89;69.67
68301;BME280;55146;47.468;18.806;2023-03-16T06:31:06;100421.59;;;3.07;69.29
68301;BME280;55146;47.468;18.806;2023-03-16T06:33:31;100427.53;;;3.22;69.09
68301;BME280;55146;47.468;18.806;2023-03-16T06:35:57;100426.63;;;3.35;68.38
68301;BME280;55146;47.468;18.806;2023-03-16T06:38:22;100435.53;;;3.49;68.16
68301;BME280;55146;47.468;18.806;2023-03-16T06:40:52;100440.22;;;3.66;68.21
68301;BME280;55146;47.468;18.806;2023-03-16T06:43:17;100438.44;;;3.79;68.32
68301;BME280;55146;47.468;18.806;2023-03-16T06:45:42;100444.56;;;3.99;67.49
68301;BME280;55146;47.468;18.806;2023-03-16T06:48:08;100449.88;;;4.12;67.46
68301;BME280;55146;47.468;18.806;2023-03-16T06:50:34;100447.78;;;4.32;66.68
68301;BME280;55146;47.468;18.806;2023-03-16T06:53:00;100457.28;;;4.48;66.08
68301;BME280;55146;47.468;18.806;2023-03-16T06:55:25;100452.81;;;4.72;65.63
68301;BME280;55146;47.468;18.806;2023-03-16T06:57:50;100456.97;;;4.93;65.22
68301;BME280;55146;47.468;18.806;2023-03-16T07:00:16;100459.75;;;5.04;64.56
68301;BME280;55146;47.468;18.806;2023-03-16T07:02:41;100459.16;;;5.32;63.67
68301;BME280;55146;47.468;18.806;2023-03-16T07:05:08;100461.25;;;5.48;63.12
68301;BME280;55146;47.468;18.806;2023-03-16T07:07:41;100468.88;;;5.69;62.13
68301;BME280;55146;47.468;18.806;2023-03-16T07:10:09;100466.12;;;5.88;61.81
68301;BME280;55146;47.468;18.806;2023-03-16T07:12:35;100469.97;;;6.22;61.44
68301;BME280;55146;47.468;18.806;2023-03-16T07:15:00;100472.59;;;6.52;60.01
68301;BME280;55146;47.468;18.806;2023-03-16T07:17:26;100477.19;;;6.74;59.63
68301;BME280;55146;47.468;18.806;2023-03-16T07:19:51;100473.34;;;6.99;58.79
68301;BME280;55146;47.468;18.806;2023-03-16T07:22:16;100481.59;;;7.27;57.76
68301;BME280;55146;47.468;18.806;2023-03-16T07:24:42;100475.25;;;7.38;57.97
68301;BME280;55146;47.468;18.806;2023-03-16T07:27:08;100487.75;;;7.62;56.97
68301;BME280;55146;47.468;18.806;2023-03-16T07:29:33;100482.59;;;7.66;55.81
68301;BME280;55146;47.468;18.806;2023-03-16T07:31:59;100486.47;;;7.82;55.78
68301;BME280;55146;47.468;18.806;2023-03-16T07:34:24;100487.53;;;7.97;55.35
68301;BME280;55146;47.468;18.806;2023-03-16T07:36:49;100495.53;;;8.16;55.25
68301;BME280;55146;47.468;18.806;2023-03-16T07:39:17;100496.19;;;8.23;54.31
68301;BME280;55146;47.468;18.806;2023-03-16T07:41:42;100494.84;;;8.08;53.70
68301;BME280;55146;47.468;18.806;2023-03-16T07:44:08;100500.34;;;8.25;54.43
68301;BME280;55146;47.468;18.806;2023-03-16T07:46:35;100502.00;;;8.60;53.53
68301;BME280;55146;47.468;18.806;2023-03-16T07:49:01;100503.44;;;8.62;53.12
68301;BME280;55146;47.468;18.806;2023-03-16T07:51:26;100505.91;;;8.80;52.69
68301;BME280;55146;47.468;18.806;2023-03-16T07:53:52;100506.19;;;9.01;52.19
68301;BME280;55146;47.468;18.806;2023-03-16T07:56:18;100509.22;;;9.04;51.58
68301;BME280;55146;47.468;18.806;2023-03-16T07:58:43;100506.38;;;9.38;51.50
68301;BME280;55146;47.468;18.806;2023-03-16T08:01:08;100507.38;;;9.53;50.61
68301;BME280;55146;47.468;18.806;2023-03-16T08:03:36;100502.22;;;9.35;50.53
68301;BME280;55146;47.468;18.806;2023-03-16T08:06:02;100512.06;;;9.31;49.80
68301;BME280;55146;47.468;18.806;2023-03-16T08:08:28;100506.00;;;9.29;50.14
68301;BME280;55146;47.468;18.806;2023-03-16T08:10:54;100504.31;;;9.28;50.90
68301;BME280;55146;47.468;18.806;2023-03-16T08:13:19;100509.69;;;9.40;49.61
68301;BME280;55146;47.468;18.806;2023-03-16T08:15:50;100502.34;;;9.72;49.63
68301;BME280;55146;47.468;18.806;2023-03-16T08:18:26;100511.31;;;9.89;48.95
68301;BME280;55146;47.468;18.806;2023-03-16T08:20:52;100506.53;;;10.06;49.77
68301;BME280;55146;47.468;18.806;2023-03-16T08:23:19;100514.38;;;10.20;47.96
68301;BME280;55146;47.468;18.806;2023-03-16T08:25:45;100508.06;;;10.19;48.38
68301;BME280;55146;47.468;18.806;2023-03-16T08:28:10;100516.44;;;10.34;47.64
68301;BME280;55146;47.468;18.806;2023-03-16T08:30:36;100514.69;;;10.55;48.41
68301;BME280;55146;47.468;18.806;2023-03-16T08:33:02;100509.62;;;10.79;47.68
68301;BME280;55146;47.468;18.806;2023-03-16T08:35:28;100512.91;;;10.81;46.49
68301;BME280;55146;47.468;18.806;2023-03-16T08:37:54;100513.62;;;10.61;46.16
68301;BME280;55146;47.468;18.806;2023-03-16T08:40:19;100514.31;;;10.83;45.86
68301;BME280;55146;47.468;18.806;2023-03-16T08:42:49;100509.19;;;10.97;44.97
68301;BME280;55146;47.468;18.806;2023-03-16T08:45:15;100514.06;;;10.85;44.40
68301;BME280;55146;47.468;18.806;2023-03-16T08:47:42;100512.72;;;10.92;45.03
68301;BME280;55146;47.468;18.806;2023-03-16T08:50:09;100502.00;;;10.96;43.73
68301;BME280;55146;47.468;18.806;2023-03-16T08:52:34;100501.44;;;10.94;43.92
68301;BME280;55146;47.468;18.806;2023-03-16T08:55:04;100506.22;;;11.09;44.39
68301;BME280;55146;47.468;18.806;2023-03-16T08:57:31;100510.28;;;10.96;44.60
68301;BME280;55146;47.468;18.806;2023-03-16T08:59:57;100512.53;;;11.04;42.84
68301;BME280;55146;47.468;18.806;2023-03-16T09:02:23;100506.81;;;11.16;44.20
68301;BME280;55146;47.468;18.806;2023-03-16T09:04:49;100509.03;;;11.24;42.96
68301;BME280;55146;47.468;18.806;2023-03-16T09:07:15;100510.28;;;10.96;42.30
68301;BME280;55146;47.468;18.806;2023-03-16T09:09:40;100504.59;;;11.18;42.38
68301;BME280;55146;47.468;18.806;2023-03-16T09:12:06;100509.09;;;11.39;42.85
68301;BME280;55146;47.468;18.806;2023-03-16T09:14:32;100509.97;;;11.50;42.83
68301;BME280;55146;47.468;18.806;2023-03-16T09:16:58;100510.44;;;11.36;41.35
68301;BME280;55146;47.468;18.806;2023-03-16T09:19:23;100514.03;;;11.37;43.22
68301;BME280;55146;47.468;18.806;2023-03-16T09:21:49;100515.47;;;11.45;42.36
68301;BME280;55146;47.468;18.806;2023-03-16T09:24:15;100518.53;;;11.53;42.72
68301;BME280;55146;47.468;18.806;2023-03-16T09:26:41;100514.44;;;11.71;42.40
68301;BME280;55146;47.468;18.806;2023-03-16T09:29:08;100514.97;;;11.73;42.90
68301;BME280;55146;47.468;18.806;2023-03-16T09:31:33;100515.88;;;11.79;41.16
68301;BME280;55146;47.468;18.806;2023-03-16T09:34:00;100520.06;;;12.01;41.89
68301;BME280;55146;47.468;18.806;2023-03-16T09:36:25;100526.94;;;12.04;40.98
68301;BME280;55146;47.468;18.806;2023-03-16T09:38:51;100525.03;;;12.09;41.46
68301;BME280;55146;47.468;18.806;2023-03-16T09:46:52;100529.44;;;12.76;40.18
68301;BME280;55146;47.468;18.806;2023-03-16T09:49:19;100522.22;;;12.95;39.90
68301;BME280;55146;47.468;18.806;2023-03-16T09:51:57;100518.87;;;13.19;38.91
68301;BME280;55146;47.468;18.806;2023-03-16T09:54:39;100533.25;;;13.16;39.46
68301;BME280;55146;47.468;18.806;2023-03-16T09:57:25;100520.78;;;13.23;39.30
68301;BME280;55146;47.468;18.806;2023-03-16T09:59:52;100533.00;;;13.02;38.86
68301;BME280;55146;47.468;18.806;2023-03-16T10:05:10;100528.03;;;13.14;38.74
68301;BME280;55146;47.468;18.806;2023-03-16T10:10:42;100529.63;;;13.10;38.87
68301;BME280;55146;47.468;18.806;2023-03-16T10:13:46;100537.03;;;13.45;36.95
68301;BME280;55146;47.468;18.806;2023-03-16T10:16:32;100530.69;;;13.34;36.86
68301;BME280;55146;47.468;18.806;2023-03-16T10:21:38;100530.66;;;13.50;37.77
68301;BME280;55146;47.468;18.806;2023-03-16T10:24:12;100532.53;;;13.59;35.66
68301;BME280;55146;47.468;18.806;2023-03-16T10:26:41;100534.38;;;13.79;37.15
68301;BME280;55146;47.468;18.806;2023-03-16T10:29:12;100526.31;;;13.83;35.47
68301;BME280;55146;47.468;18.806;2023-03-16T10:31:40;100530.81;;;13.73;36.10
68301;BME280;55146;47.468;18.806;2023-03-16T10:34:06;100526.62;;;13.81;36.32
68301;BME280;55146;47.468;18.806;2023-03-16T10:36:43;100526.62;;;13.81;35.14
68301;BME280;55146;47.468;18.806;2023-03-16T10:39:13;100534.12;;;13.75;35.89
68301;BME280;55146;47.468;18.806;2023-03-16T10:41:42;100531.59;;;13.79;36.44
68301;BME280;55146;47.468;18.806;2023-03-16T10:44:26;100524.34;;;13.93;36.68
68301;BME280;55146;47.468;18.806;2023-03-16T10:47:04;100538.44;;;13.92;34.22
68301;BME280;55146;47.468;18.806;2023-03-16T10:49:38;100530.91;;;14.02;36.26
68301;BME280;55146;47.468;18.806;2023-03-16T10:54:59;100525.63;;;14.50;35.88
68301;BME280;55146;47.468;18.806;2023-03-16T10:57:30;100509.62;;;14.37;32.99
68301;BME280;55146;47.468;18.806;2023-03-16T11:00:07;100522.75;;;14.21;32.92
68301;BME280;55146;47.468;18.806;2023-03-16T11:02:46;100517.22;;;14.21;33.73
68301;BME280;55146;47.468;18.806;2023-03-16T11:05:29;100510.12;;;14.49;32.95
68301;BME280;55146;47.468;18.806;2023-03-16T11:12:51;100508.25;;;14.39;31.42
68301;BME280;55146;47.468;18.806;2023-03-16T11:15:18;100517.31;;;14.45;30.69
68301;BME280;55146;47.468;18.806;2023-03-16T11:17:48;100513.94;;;14.53;31.27
68301;BME280;55146;47.468;18.806;2023-03-16T11:20:17;100503.38;;;14.60;31.08
68301;BME280;55146;47.468;18.806;2023-03-16T11:22:45;100507.13;;;14.74;30.77
68301;BME280;55146;47.468;18.806;2023-03-16T11:33:28;100495.66;;;15.10;29.31
68301;BME280;55146;47.468;18.806;2023-03-16T11:39:09;100496.06;;;14.98;28.23
68301;BME280;55146;47.468;18.806;2023-03-16T11:45:08;100486.31;;;14.77;27.82
68301;BME280;55146;47.468;18.806;2023-03-16T11:58:32;100478.66;;;14.69;26.86
68301;BME280;55146;47.468;18.806;2023-03-16T12:03:47;100478.69;;;14.30;28.67
68301;BME280;55146;47.468;18.806;2023-03-16T12:09:06;100485.19;;;14.78;27.82
68301;BME280;55146;47.468;18.806;2023-03-16T12:11:44;100472.66;;;14.85;26.87
68301;BME280;55146;47.468;18.806;2023-03-16T12:22:00;100466.28;;;15.09;27.91
68301;BME280;55146;47.468;18.806;2023-03-16T12:24:33;100462.06;;;14.92;27.38
68301;BME280;55146;47.468;18.806;2023-03-16T12:27:00;100476.81;;;14.83;26.50
68301;BME280;55146;47.468;18.806;2023-03-16T12:29:35;100469.59;;;14.87;26.82
68301;BME280;55146;47.468;18.806;2023-03-16T12:32:10;100473.09;;;14.69;28.25
68301;BME280;55146;47.468;18.806;2023-03-16T12:35:51;100472.66;;;14.56;27.07
68301;BME280;55146;47.468;18.806;2023-03-16T12:43:27;100464.19;;;14.09;26.32
68301;BME280;55146;47.468;18.806;2023-03-16T12:46:06;100468.06;;;14.08;27.32
68301;BME280;55146;47.468;18.806;2023-03-16T12:48:36;100473.69;;;14.32;28.74
68301;BME280;55146;47.468;18.806;2023-03-16T12:51:03;100473.81;;;14.16;26.94
68301;BME280;55146;47.468;18.806;2023-03-16T12:53:52;100473.44;;;13.89;28.22
68301;BME280;55146;47.468;18.806;2023-03-16T12:56:26;100484.00;;;13.87;28.97
68301;BME280;55146;47.468;18.806;2023-03-16T12:58:55;100471.47;;;14.00;27.20
68301;BME280;55146;47.468;18.806;2023-03-16T13:01:26;100478.50;;;13.82;27.12
68301;BME280;55146;47.468;18.806;2023-03-16T13:04:00;100478.59;;;13.67;27.89
68301;BME280;55146;47.468;18.806;2023-03-16T13:06:32;100475.84;;;13.62;27.57
68301;BME280;55146;47.468;18.806;2023-03-16T13:08:59;100457.91;;;13.54;29.28
68301;BME280;55146;47.468;18.806;2023-03-16T13:11:26;100475.72;;;13.28;28.55
68301;BME280;55146;47.468;18.806;2023-03-16T13:16:29;100473.56;;;13.74;28.14
68301;BME280;55146;47.468;18.806;2023-03-16T13:18:56;100474.19;;;13.61;27.37
68301;BME280;55146;47.468;18.806;2023-03-16T13:21:35;100475.94;;;13.42;27.39
68301;BME280;55146;47.468;18.806;2023-03-16T13:24:25;100476.56;;;13.28;27.29
68301;BME280;55146;47.468;18.806;2023-03-16T13:26:57;100473.56;;;13.20;30.75
68301;BME280;55146;47.468;18.806;2023-03-16T13:29:27;100473.78;;;13.39;29.90
68301;BME280;55146;47.468;18.806;2023-03-16T13:31:56;100474.94;;;13.17;29.00
68301;BME280;55146;47.468;18.806;2023-03-16T13:34:29;100474.75;;;12.78;28.74
68301;BME280;55146;47.468;18.806;2023-03-16T13:36:57;100478.06;;;12.80;30.42
68301;BME280;55146;47.468;18.806;2023-03-16T13:39:25;100480.28;;;12.88;28.19
68301;BME280;55146;47.468;18.806;2023-03-16T13:42:17;100484.13;;;12.92;29.12
68301;BME280;55146;47.468;18.806;2023-03-16T13:44:43;100472.50;;;12.90;28.59
68301;BME280;55146;47.468;18.806;2023-03-16T13:47:16;100479.16;;;12.89;28.02
68301;BME280;55146;47.468;18.806;2023-03-16T13:50:12;100471.41;;;13.02;28.62
68301;BME280;55146;47.468;18.806;2023-03-16T13:52:38;100469.97;;;13.09;27.91
68301;BME280;55146;47.468;18.806;2023-03-16T13:55:13;100462.22;;;13.26;29.02
68301;BME280;55146;47.468;18.806;2023-03-16T13:57:41;100474.13;;;13.17;27.72
68301;BME280;55146;47.468;18.806;2023-03-16T14:00:16;100467.53;;;13.13;28.27
68301;BME280;55146;47.468;18.806;2023-03-16T14:02:46;100473.34;;;12.96;26.98
68301;BME280;55146;47.468;18.806;2023-03-16T14:07:48;100472.28;;;12.82;28.29
68301;BME280;55146;47.468;18.806;2023-03-16T14:10:15;100468.66;;;12.86;26.74
68301;BME280;55146;47.468;18.806;2023-03-16T14:12:56;100461.03;;;12.58;27.64